Time;durP1;ratioP1;P1;durP2;ratioP2;P2;SDS_P1;SDS_P2;PMS_P1;PMS_P2;Temp;Humidity;BMP_temperature;BMP_pressure;BME280_temperature;BME280_humidity;BME280_pressure;Samples;Min_cycle;Max_cycle;Signal;HPM_P1;HPM_P2
2023/02/20 00:01:16;;;;;;;2.55;0.75;;;;;;;;;;5024189;28;20124;-62
2023/02/20 00:03:43;;;;;;;1.15;0.40;;;;;;;;;;5024595;28;20422;-63
2023/02/20 00:06:09;;;;;;;1.35;0.43;;;;;;;;;;5025890;28;20048;-62
2023/02/20 00:08:36;;;;;;;1.33;0.50;;;;;;;;;;5024514;28;20041;-62
2023/02/20 00:11:03;;;;;;;2.22;0.63;;;;;;;;;;5026239;28;20033;-63
2023/02/20 00:13:29;;;;;;;0.98;0.35;;;;;;;;;;5025124;28;20033;-65
2023/02/20 00:15:56;;;;;;;0.82;0.40;;;;;;;;;;5008449;28;20056;-61
2023/02/20 00:18:23;;;;;;;0.63;0.30;;;;;;;;;;5024602;28;20056;-63
2023/02/20 00:20:49;;;;;;;1.13;0.40;;;;;;;;;;5025482;28;20564;-64
2023/02/20 00:23:16;;;;;;;1.92;0.60;;;;;;;;;;5024310;28;20402;-64
2023/02/20 00:25:43;;;;;;;1.15;0.57;;;;;;;;;;5023662;28;20528;-63
2023/02/20 00:28:10;;;;;;;0.95;0.40;;;;;;;;;;5025446;28;20041;-64
2023/02/20 00:30:36;;;;;;;1.63;0.47;;;;;;;;;;5024281;28;20037;-63
2023/02/20 00:33:03;;;;;;;1.63;0.50;;;;;;;;;;5026533;28;20596;-64
2023/02/20 00:35:29;;;;;;;1.48;0.57;;;;;;;;;;5022624;28;20048;-64
2023/02/20 00:37:56;;;;;;;2.33;0.60;;;;;;;;;;5023653;28;20143;-63
2023/02/20 00:40:24;;;;;;;2.00;0.50;;;;;;;;;;5023874;28;20051;-63
2023/02/20 00:42:50;;;;;;;1.30;0.47;;;;;;;;;;5026180;28;20121;-64
2023/02/20 00:45:17;;;;;;;1.10;0.57;;;;;;;;;;5024785;28;20770;-64
2023/02/20 00:47:44;;;;;;;1.08;0.38;;;;;;;;;;5025570;28;20044;-64
2023/02/20 00:50:12;;;;;;;1.15;0.40;;;;;;;;;;5020269;28;20204;-65
2023/02/20 00:52:39;;;;;;;1.15;0.40;;;;;;;;;;5003701;28;20033;-65
2023/02/20 00:55:06;;;;;;;0.55;0.30;;;;;;;;;;5004874;28;20085;-65
2023/02/20 00:57:33;;;;;;;0.38;0.30;;;;;;;;;;5009196;28;20489;-62
2023/02/20 00:59:59;;;;;;;0.47;0.38;;;;;;;;;;5004330;28;20046;-63
2023/02/20 01:02:26;;;;;;;2.95;0.40;;;;;;;;;;5004323;28;20042;-65
2023/02/20 01:04:53;;;;;;;3.22;0.63;;;;;;;;;;5011646;28;20049;-64
2023/02/20 01:07:20;;;;;;;3.15;0.52;;;;;;;;;;5004663;28;20096;-63
2023/02/20 01:09:47;;;;;;;1.38;0.60;;;;;;;;;;5004880;28;20041;-63
2023/02/20 01:12:13;;;;;;;1.50;0.50;;;;;;;;;;5005875;28;20054;-64
2023/02/20 01:14:40;;;;;;;1.13;0.43;;;;;;;;;;5004010;28;20081;-62
2023/02/20 01:17:07;;;;;;;1.08;0.38;;;;;;;;;;5005020;28;20503;-63
2023/02/20 01:19:34;;;;;;;0.88;0.40;;;;;;;;;;5005555;28;20067;-64
2023/02/20 01:22:03;;;;;;;0.85;0.40;;;;;;;;;;5006649;28;20176;-62
2023/02/20 01:24:30;;;;;;;0.93;0.40;;;;;;;;;;5006482;28;20068;-62
2023/02/20 01:26:56;;;;;;;2.50;0.60;;;;;;;;;;5019888;28;20167;-63
2023/02/20 01:29:23;;;;;;;1.38;0.40;;;;;;;;;;5005303;28;20084;-60
2023/02/20 01:31:51;;;;;;;1.33;0.50;;;;;;;;;;5005040;28;20050;-64
2023/02/20 01:34:18;;;;;;;1.73;0.60;;;;;;;;;;5008376;28;20061;-60
2023/02/20 01:36:46;;;;;;;2.20;0.47;;;;;;;;;;5007575;28;21001;-63
2023/02/20 01:39:13;;;;;;;1.70;0.50;;;;;;;;;;5008710;28;20052;-63
2023/02/20 01:41:39;;;;;;;3.42;0.70;;;;;;;;;;5022571;28;21096;-62
2023/02/20 01:44:12;;;;;;;0.88;0.38;;;;;;;;;;5006340;28;20096;-62
2023/02/20 01:46:38;;;;;;;1.55;0.50;;;;;;;;;;5006845;28;20184;-63
2023/02/20 01:49:11;;;;;;;1.63;0.50;;;;;;;;;;5018693;28;20049;-63
2023/02/20 01:51:42;;;;;;;1.38;0.50;;;;;;;;;;5027041;28;21113;-62
2023/02/20 01:54:29;;;;;;;2.10;0.45;;;;;;;;;;5006342;28;20034;-64
2023/02/20 01:56:58;;;;;;;1.05;0.40;;;;;;;;;;5005618;28;20415;-63
2023/02/20 01:59:25;;;;;;;2.65;0.60;;;;;;;;;;5005667;28;20057;-62
2023/02/20 02:01:52;;;;;;;1.60;0.50;;;;;;;;;;5008751;28;20045;-63
2023/02/20 02:04:20;;;;;;;1.42;0.40;;;;;;;;;;5008425;28;20100;-65
2023/02/20 02:06:49;;;;;;;1.05;0.40;;;;;;;;;;5004004;28;20198;-62
2023/02/20 02:09:22;;;;;;;1.40;0.47;;;;;;;;;;5006812;28;20390;-63
2023/02/20 02:11:49;;;;;;;;;;;;;;;;;;5007593;28;20739;-63
2023/02/20 02:14:35;;;;;;;1.10;0.40;;;;;;;;;;4984924;28;20278;-65
2023/02/20 02:17:13;;;;;;;1.73;0.60;;;;;;;;;;4984970;28;20081;-63
2023/02/20 02:20:01;;;;;;;1.55;0.50;;;;;;;;;;4986834;28;20049;-64
2023/02/20 02:23:06;;;;;;;1.42;0.50;;;;;;;;;;4986649;28;20072;-62
2023/02/20 02:25:36;;;;;;;1.80;0.47;;;;;;;;;;4944370;28;20123;-64
2023/02/20 02:28:03;;;;;;;3.60;0.50;;;;;;;;;;4953949;28;20795;-71
2023/02/20 02:30:44;;;;;;;1.13;0.45;;;;;;;;;;4982122;28;20076;-64
2023/02/20 02:33:26;;;;;;;0.50;0.38;;;;;;;;;;4992976;28;20037;-67
2023/02/20 02:36:06;;;;;;;1.17;0.40;;;;;;;;;;5027042;28;20060;-63
2023/02/20 02:38:45;;;;;;;1.17;0.40;;;;;;;;;;5010527;28;20041;-65
2023/02/20 02:41:30;;;;;;;1.10;0.50;;;;;;;;;;5006504;28;20041;-64
2023/02/20 02:44:00;;;;;;;1.55;0.55;;;;;;;;;;5010860;28;20108;-62
2023/02/20 02:46:37;;;;;;;1.17;0.40;;;;;;;;;;5010438;28;20038;-63
2023/02/20 02:49:07;;;;;;;1.08;0.40;;;;;;;;;;5008033;28;20068;-65
2023/02/20 02:51:36;;;;;;;1.23;0.45;;;;;;;;;;5009084;28;20057;-62
2023/02/20 02:54:11;;;;;;;1.08;0.40;;;;;;;;;;5007379;28;20604;-62
2023/02/20 02:56:39;;;;;;;2.55;0.50;;;;;;;;;;5007130;28;20164;-65
2023/02/20 02:59:07;;;;;;;1.85;0.50;;;;;;;;;;5012027;28;20046;-66
2023/02/20 03:01:37;;;;;;;1.33;0.43;;;;;;;;;;5008192;28;20410;-65
2023/02/20 03:04:05;;;;;;;1.13;0.40;;;;;;;;;;5007763;28;20091;-65
2023/02/20 03:06:34;;;;;;;1.95;0.47;;;;;;;;;;5003955;28;20033;-64
2023/02/20 03:09:10;;;;;;;1.33;0.40;;;;;;;;;;5009002;28;20394;-64
2023/02/20 03:11:38;;;;;;;1.42;0.50;;;;;;;;;;5005367;28;20133;-64
2023/02/20 03:17:19;;;;;;;2.10;0.60;;;;;;;;;;5004085;28;20522;-66
2023/02/20 03:19:47;;;;;;;2.40;0.68;;;;;;;;;;5006170;28;20144;-66
2023/02/20 03:22:25;;;;;;;1.45;0.55;;;;;;;;;;5007093;28;20089;-66
2023/02/20 03:24:54;;;;;;;3.25;1.08;;;;;;;;;;5006686;28;20048;-66
2023/02/20 03:27:24;;;;;;;2.72;0.63;;;;;;;;;;5006065;28;20038;-66
2023/02/20 03:29:52;;;;;;;2.75;0.60;;;;;;;;;;5012235;28;20411;-65
2023/02/20 03:43:26;;;;;;;2.50;0.70;;;;;;;;;;5011342;28;20505;-65
2023/02/20 03:46:01;;;;;;;1.10;0.45;;;;;;;;;;5004322;28;20674;-66
2023/02/20 03:48:30;;;;;;;2.08;0.57;;;;;;;;;;5004339;28;20509;-66
2023/02/20 03:53:44;;;;;;;0.85;0.30;;;;;;;;;;5004949;28;20104;-64
2023/02/20 03:56:13;;;;;;;0.95;0.35;;;;;;;;;;5020873;28;20053;-66
2023/02/20 03:58:42;;;;;;;0.38;0.30;;;;;;;;;;5006450;28;20046;-66
2023/02/20 04:01:10;;;;;;;0.93;0.40;;;;;;;;;;5008143;28;20041;-65
2023/02/20 04:03:38;;;;;;;1.13;0.32;;;;;;;;;;5007337;28;20738;-66
2023/02/20 04:06:07;;;;;;;0.70;0.32;;;;;;;;;;5012215;28;20072;-66
2023/02/20 04:08:35;;;;;;;2.90;0.55;;;;;;;;;;5026233;28;20174;-66
2023/02/20 04:11:02;;;;;;;0.90;0.40;;;;;;;;;;5032579;28;20037;-66
2023/02/20 04:13:49;;;;;;;1.70;0.52;;;;;;;;;;4982496;28;20046;-65
2023/02/20 04:16:16;;;;;;;1.40;0.40;;;;;;;;;;4976074;28;20050;-65
2023/02/20 04:18:42;;;;;;;1.95;0.50;;;;;;;;;;4967848;28;20081;-65
2023/02/20 04:21:15;;;;;;;1.80;0.60;;;;;;;;;;4966333;28;20046;-65
2023/02/20 04:23:44;;;;;;;1.15;0.40;;;;;;;;;;4964878;28;20102;-65
2023/02/20 04:26:17;;;;;;;0.90;0.40;;;;;;;;;;4964513;28;20082;-66
2023/02/20 04:28:44;;;;;;;2.00;0.70;;;;;;;;;;4965193;28;20062;-67
2023/02/20 04:31:15;;;;;;;1.35;0.50;;;;;;;;;;4965418;28;20042;-65
2023/02/20 04:33:41;;;;;;;0.95;0.40;;;;;;;;;;4963155;28;20051;-65
2023/02/20 04:36:11;;;;;;;1.48;0.50;;;;;;;;;;4963935;28;20092;-66
2023/02/20 04:38:38;;;;;;;0.95;0.43;;;;;;;;;;4963273;28;20058;-65
2023/02/20 04:41:05;;;;;;;1.60;0.50;;;;;;;;;;4965657;28;20054;-65
2023/02/20 04:43:31;;;;;;;1.35;0.47;;;;;;;;;;4967586;28;20050;-65
2023/02/20 04:45:58;;;;;;;2.03;0.40;;;;;;;;;;5010294;28;20481;-65
2023/02/20 04:48:25;;;;;;;2.92;0.77;;;;;;;;;;5016709;28;20049;-65
2023/02/20 04:50:52;;;;;;;2.20;0.80;;;;;;;;;;5033603;28;20513;-65
2023/02/20 04:53:19;;;;;;;2.70;1.00;;;;;;;;;;5028131;28;20126;-65
2023/02/20 04:55:46;;;;;;;2.15;0.57;;;;;;;;;;5030879;28;20109;-64
2023/02/20 04:58:12;;;;;;;1.52;0.50;;;;;;;;;;5027508;28;20107;-67
2023/02/20 05:00:39;;;;;;;1.73;0.60;;;;;;;;;;5025905;28;20094;-65
2023/02/20 05:03:06;;;;;;;3.85;0.60;;;;;;;;;;5028268;28;20128;-66
2023/02/20 05:05:32;;;;;;;2.00;0.60;;;;;;;;;;5027786;28;20553;-66
2023/02/20 05:08:00;;;;;;;2.20;0.60;;;;;;;;;;5024184;28;20053;-67
2023/02/20 05:10:28;;;;;;;1.92;0.50;;;;;;;;;;5025129;28;20045;-66
2023/02/20 05:12:56;;;;;;;3.80;0.52;;;;;;;;;;5023883;28;20445;-66
2023/02/20 05:15:23;;;;;;;1.25;0.40;;;;;;;;;;5026490;28;20151;-66
2023/02/20 05:17:50;;;;;;;2.35;0.68;;;;;;;;;;5026566;28;20087;-66
2023/02/20 05:20:17;;;;;;;2.42;0.70;;;;;;;;;;5026056;28;20448;-66
2023/02/20 05:22:47;;;;;;;7.97;1.10;;;;;;;;;;5024878;28;20045;-66
2023/02/20 05:25:15;;;;;;;4.03;1.10;;;;;;;;;;5026313;28;20041;-66
2023/02/20 05:27:42;;;;;;;4.10;1.17;;;;;;;;;;5024704;28;20040;-66
2023/02/20 05:30:09;;;;;;;2.35;0.73;;;;;;;;;;5026825;28;20049;-66
2023/02/20 05:32:35;;;;;;;2.90;0.75;;;;;;;;;;5026573;28;20491;-66
2023/02/20 05:35:02;;;;;;;2.95;0.80;;;;;;;;;;5030551;28;20041;-66
2023/02/20 05:37:29;;;;;;;5.38;1.00;;;;;;;;;;5027048;28;20055;-65
2023/02/20 05:39:55;;;;;;;2.92;1.13;;;;;;;;;;5027367;28;20132;-66
2023/02/20 05:42:22;;;;;;;4.35;1.08;;;;;;;;;;5026517;28;20038;-66
2023/02/20 05:44:49;;;;;;;1.77;0.52;;;;;;;;;;5026595;28;20402;-67
2023/02/20 05:47:16;;;;;;;2.08;0.70;;;;;;;;;;5024926;28;20041;-67
2023/02/20 05:49:42;;;;;;;1.58;0.60;;;;;;;;;;5028703;28;20470;-67
2023/02/20 05:52:11;;;;;;;1.58;0.50;;;;;;;;;;5027902;28;20052;-68
2023/02/20 05:54:38;;;;;;;1.77;0.60;;;;;;;;;;5027516;28;20049;-66
2023/02/20 05:57:05;;;;;;;2.72;1.05;;;;;;;;;;5025364;28;20076;-66
2023/02/20 05:59:32;;;;;;;2.15;0.63;;;;;;;;;;5024526;28;20043;-66
2023/02/20 06:01:59;;;;;;;2.30;0.70;;;;;;;;;;5031595;28;20394;-64
2023/02/20 06:04:26;;;;;;;1.83;0.60;;;;;;;;;;5024040;28;20041;-63
2023/02/20 06:06:53;;;;;;;0.82;0.40;;;;;;;;;;5024618;28;20401;-65
2023/02/20 06:09:20;;;;;;;1.65;0.50;;;;;;;;;;5024566;28;20037;-66
2023/02/20 06:11:54;;;;;;;2.40;0.60;;;;;;;;;;5024999;28;20710;-65
2023/02/20 06:14:21;;;;;;;10.70;0.98;;;;;;;;;;5023845;28;20800;-64
2023/02/20 06:16:48;;;;;;;3.35;0.70;;;;;;;;;;5024634;28;20049;-65
2023/02/20 06:19:21;;;;;;;4.38;0.65;;;;;;;;;;5025053;28;20810;-65
2023/02/20 06:21:48;;;;;;;2.95;0.73;;;;;;;;;;5028444;28;20143;-64
2023/02/20 06:24:15;;;;;;;2.95;0.80;;;;;;;;;;5028169;28;20052;-64
2023/02/20 06:26:42;;;;;;;3.28;0.82;;;;;;;;;;5026415;28;20120;-65
2023/02/20 06:29:09;;;;;;;2.80;0.80;;;;;;;;;;5027515;28;20095;-65
2023/02/20 06:31:36;;;;;;;3.58;1.10;;;;;;;;;;5028154;28;20033;-64
2023/02/20 06:34:03;;;;;;;3.10;0.90;;;;;;;;;;5028252;28;20042;-65
2023/02/20 06:36:31;;;;;;;5.43;0.80;;;;;;;;;;5027714;28;20065;-65
2023/02/20 06:38:58;;;;;;;3.17;0.70;;;;;;;;;;5011505;28;20375;-67
2023/02/20 06:41:25;;;;;;;2.20;0.65;;;;;;;;;;5028680;28;20392;-66
2023/02/20 06:43:52;;;;;;;2.00;0.70;;;;;;;;;;5028654;28;20042;-65
2023/02/20 06:46:18;;;;;;;1.67;0.50;;;;;;;;;;5024746;28;20088;-69
2023/02/20 06:48:46;;;;;;;1.75;0.60;;;;;;;;;;5028964;28;20454;-65
2023/02/20 06:51:13;;;;;;;1.15;0.50;;;;;;;;;;5028992;28;20573;-65
2023/02/20 06:53:41;;;;;;;1.85;0.60;;;;;;;;;;5027095;28;20036;-66
2023/02/20 06:56:14;;;;;;;1.92;0.60;;;;;;;;;;5028272;28;20107;-66
2023/02/20 06:58:41;;;;;;;1.75;0.60;;;;;;;;;;5027159;28;20423;-67
2023/02/20 07:01:08;;;;;;;3.05;0.63;;;;;;;;;;5014855;28;20394;-65
2023/02/20 07:03:35;;;;;;;3.97;0.60;;;;;;;;;;5025950;28;20611;-65
2023/02/20 07:06:02;;;;;;;2.75;0.60;;;;;;;;;;5027705;28;20069;-65
2023/02/20 07:08:29;;;;;;;2.75;0.70;;;;;;;;;;5026428;28;20057;-66
2023/02/20 07:10:55;;;;;;;2.65;0.70;;;;;;;;;;5027195;28;20040;-66
2023/02/20 07:13:22;;;;;;;1.85;0.60;;;;;;;;;;5027386;28;20441;-66
2023/02/20 07:15:49;;;;;;;6.75;0.80;;;;;;;;;;5025813;28;20544;-67
2023/02/20 07:18:16;;;;;;;2.65;0.70;;;;;;;;;;5022771;28;20041;-67
2023/02/20 07:20:44;;;;;;;1.85;0.60;;;;;;;;;;5020647;28;20047;-68
2023/02/20 07:23:10;;;;;;;2.40;0.70;;;;;;;;;;5008549;28;20042;-65
2023/02/20 07:25:37;;;;;;;2.70;0.80;;;;;;;;;;5026595;28;20044;-67
2023/02/20 07:28:07;;;;;;;4.35;0.90;;;;;;;;;;5030594;28;20029;-66
2023/02/20 07:30:33;;;;;;;3.13;0.90;;;;;;;;;;5026550;28;20067;-66
2023/02/20 07:33:00;;;;;;;2.33;0.70;;;;;;;;;;5025661;28;20045;-65
2023/02/20 07:35:27;;;;;;;3.13;0.80;;;;;;;;;;5026679;28;20068;-65
2023/02/20 07:37:53;;;;;;;2.88;0.60;;;;;;;;;;5026493;28;20959;-65
2023/02/20 07:40:21;;;;;;;1.67;0.52;;;;;;;;;;5025994;28;20051;-64
2023/02/20 07:42:47;;;;;;;2.60;0.63;;;;;;;;;;5025590;28;20075;-66
2023/02/20 07:45:14;;;;;;;2.80;0.65;;;;;;;;;;5025878;28;20106;-66
2023/02/20 07:47:40;;;;;;;1.73;0.60;;;;;;;;;;5041092;28;20033;-64
2023/02/20 07:50:07;;;;;;;1.48;0.52;;;;;;;;;;5026627;28;20566;-64
2023/02/20 07:52:34;;;;;;;1.98;0.70;;;;;;;;;;5025627;28;20045;-65
2023/02/20 07:55:00;;;;;;;1.92;0.60;;;;;;;;;;5024265;28;20038;-65
2023/02/20 07:57:27;;;;;;;1.65;0.50;;;;;;;;;;5020650;28;20055;-65
2023/02/20 07:59:54;;;;;;;3.28;0.70;;;;;;;;;;5027177;28;20040;-67
2023/02/20 08:02:20;;;;;;;2.25;0.60;;;;;;;;;;5027820;28;20965;-64
2023/02/20 08:04:47;;;;;;;3.17;0.60;;;;;;;;;;5026995;28;20045;-65
2023/02/20 08:07:13;;;;;;;1.35;0.50;;;;;;;;;;5025959;28;20494;-65
2023/02/20 08:09:40;;;;;;;1.95;0.60;;;;;;;;;;5025932;28;20052;-65
2023/02/20 08:12:07;;;;;;;2.92;0.60;;;;;;;;;;5026975;28;20067;-64
2023/02/20 08:14:33;;;;;;;1.30;0.55;;;;;;;;;;5024998;28;20044;-65
2023/02/20 08:17:00;;;;;;;2.00;0.70;;;;;;;;;;5027132;28;20083;-68
2023/02/20 08:19:27;;;;;;;2.47;0.63;;;;;;;;;;5026136;28;20038;-66
2023/02/20 08:21:53;;;;;;;1.85;0.60;;;;;;;;;;5025385;28;20041;-65
2023/02/20 08:24:20;;;;;;;2.08;0.60;;;;;;;;;;5025986;28;20111;-65
2023/02/20 08:26:48;;;;;;;1.52;0.50;;;;;;;;;;5025552;28;20029;-65
2023/02/20 08:29:15;;;;;;;1.73;0.60;;;;;;;;;;5011536;28;20485;-65
2023/02/20 08:31:42;;;;;;;1.95;0.70;;;;;;;;;;5028635;28;20052;-64
2023/02/20 08:34:09;;;;;;;6.65;0.73;;;;;;;;;;5023510;28;20033;-66
2023/02/20 08:36:36;;;;;;;2.53;0.73;;;;;;;;;;5007508;28;20145;-66
2023/02/20 08:39:03;;;;;;;2.28;0.80;;;;;;;;;;5027886;28;20041;-65
2023/02/20 08:41:29;;;;;;;0.80;0.30;;;;;;;;;;5009547;28;20049;-65
2023/02/20 08:43:56;;;;;;;1.58;0.60;;;;;;;;;;5024797;28;20742;-64
2023/02/20 08:46:22;;;;;;;2.40;0.80;;;;;;;;;;5026781;28;20082;-65
2023/02/20 08:48:49;;;;;;;1.45;0.70;;;;;;;;;;5027479;28;20446;-66
2023/02/20 08:51:19;;;;;;;1.42;0.50;;;;;;;;;;5027159;28;20072;-66
2023/02/20 08:53:45;;;;;;;2.30;0.88;;;;;;;;;;5027343;28;20042;-65
2023/02/20 08:56:12;;;;;;;2.03;0.70;;;;;;;;;;5008500;28;20144;-66
2023/02/20 08:58:40;;;;;;;2.30;0.73;;;;;;;;;;5025327;28;20045;-65
2023/02/20 09:01:07;;;;;;;2.60;0.80;;;;;;;;;;5015960;28;20052;-67
2023/02/20 09:03:37;;;;;;;0.85;0.40;;;;;;;;;;5023216;28;20045;-66
2023/02/20 09:06:05;;;;;;;2.47;0.88;;;;;;;;;;5025174;28;20037;-65
2023/02/20 09:08:31;;;;;;;2.60;0.80;;;;;;;;;;5009950;28;20041;-65
2023/02/20 09:11:18;;;;;;;1.70;0.60;;;;;;;;;;5025187;28;20875;-66
2023/02/20 09:13:45;;;;;;;3.20;0.90;;;;;;;;;;4982213;28;20130;-64
2023/02/20 09:16:32;;;;;;;2.38;0.70;;;;;;;;;;4950951;28;20046;-65
2023/02/20 09:19:00;;;;;;;1.92;0.60;;;;;;;;;;4949519;28;20038;-65
2023/02/20 09:21:28;;;;;;;2.88;0.80;;;;;;;;;;4957608;28;20058;-65
2023/02/20 09:23:54;;;;;;;2.08;0.70;;;;;;;;;;4954361;28;20090;-65
2023/02/20 09:26:21;;;;;;;3.00;0.82;;;;;;;;;;4951917;28;20370;-65
2023/02/20 09:28:48;;;;;;;2.53;0.70;;;;;;;;;;4959518;28;20049;-66
2023/02/20 09:31:14;;;;;;;2.17;0.73;;;;;;;;;;4967286;28;20202;-65
2023/02/20 09:33:45;;;;;;;2.70;0.80;;;;;;;;;;4968711;28;20042;-67
2023/02/20 09:36:11;;;;;;;2.17;0.68;;;;;;;;;;4965237;28;20133;-65
2023/02/20 09:38:38;;;;;;;2.58;0.65;;;;;;;;;;4963725;28;20046;-67
2023/02/20 09:41:05;;;;;;;1.90;0.60;;;;;;;;;;4965812;28;20070;-64
2023/02/20 09:43:39;;;;;;;2.92;0.73;;;;;;;;;;4964636;28;20046;-65
2023/02/20 09:46:17;;;;;;;2.90;1.02;;;;;;;;;;4967129;28;20050;-65
2023/02/20 09:48:54;;;;;;;1.92;0.70;;;;;;;;;;4955270;28;20547;-64
2023/02/20 09:51:27;;;;;;;4.00;0.80;;;;;;;;;;4987592;28;20052;-65
2023/02/20 09:53:54;;;;;;;2.47;0.77;;;;;;;;;;5006308;28;20065;-65
2023/02/20 09:56:24;;;;;;;1.80;0.63;;;;;;;;;;5007962;28;21837;-66
2023/02/20 09:58:50;;;;;;;3.05;0.80;;;;;;;;;;5009029;28;20766;-66
2023/02/20 10:01:19;;;;;;;4.75;2.00;;;;;;;;;;4989617;28;20029;-66
2023/02/20 10:03:53;;;;;;;8.50;2.83;;;;;;;;;;5010111;28;20042;-66
2023/02/20 10:06:21;;;;;;;7.93;3.45;;;;;;;;;;5023645;28;20124;-65
2023/02/20 10:08:49;;;;;;;4.35;1.60;;;;;;;;;;5006133;28;20053;-66
2023/02/20 10:11:31;;;;;;;3.47;1.10;;;;;;;;;;5017577;28;20597;-65
2023/02/20 10:14:09;;;;;;;1.48;0.70;;;;;;;;;;5021386;28;20073;-68
2023/02/20 10:16:48;;;;;;;2.25;0.80;;;;;;;;;;5000277;28;20398;-65
2023/02/20 10:19:33;;;;;;;1.95;0.65;;;;;;;;;;5006851;28;20030;-66
2023/02/20 10:22:03;;;;;;;1.92;0.70;;;;;;;;;;5008726;28;20054;-64
2023/02/20 10:24:33;;;;;;;1.70;0.50;;;;;;;;;;5008518;28;20050;-64
2023/02/20 10:27:18;;;;;;;2.08;0.70;;;;;;;;;;5008002;28;20066;-65
2023/02/20 10:29:45;;;;;;;3.08;1.48;;;;;;;;;;4990096;28;20037;-65
2023/02/20 10:32:41;;;;;;;7.95;5.43;;;;;;;;;;5008929;28;20041;-66
2023/02/20 10:35:14;;;;;;;11.32;5.70;;;;;;;;;;4970244;28;20136;-65
2023/02/20 10:37:43;;;;;;;8.52;4.97;;;;;;;;;;5019171;28;20053;-65
2023/02/20 10:40:23;;;;;;;13.10;8.63;;;;;;;;;;5015215;28;20252;-66
2023/02/20 10:43:00;;;;;;;8.18;5.30;;;;;;;;;;5000561;28;20044;-66
2023/02/20 10:45:29;;;;;;;6.93;4.03;;;;;;;;;;5009978;28;20461;-65
2023/02/20 10:48:13;;;;;;;7.93;4.28;;;;;;;;;;5010530;28;20049;-66
2023/02/20 10:50:43;;;;;;;10.35;5.93;;;;;;;;;;4971723;28;20671;-67
2023/02/20 10:53:27;;;;;;;10.32;5.55;;;;;;;;;;4970149;28;20503;-65
2023/02/20 10:56:02;;;;;;;13.73;8.02;;;;;;;;;;4976546;28;20125;-65
2023/02/20 10:58:36;;;;;;;10.48;6.38;;;;;;;;;;4972466;28;20042;-67
2023/02/20 11:01:05;;;;;;;10.90;6.82;;;;;;;;;;4968816;28;20142;-66
2023/02/20 11:03:44;;;;;;;11.25;6.75;;;;;;;;;;4969336;28;20603;-66
2023/02/20 11:06:14;;;;;;;11.25;6.05;;;;;;;;;;4969185;28;20038;-66
2023/02/20 11:08:41;;;;;;;8.65;4.57;;;;;;;;;;4968652;28;20089;-66
2023/02/20 11:11:39;;;;;;;11.73;6.40;;;;;;;;;;4968459;28;20115;-66
2023/02/20 11:14:25;;;;;;;10.95;7.13;;;;;;;;;;4970887;28;21555;-65
2023/02/20 11:17:11;;;;;;;11.25;6.28;;;;;;;;;;4970953;28;20054;-67
2023/02/20 11:19:40;;;;;;;9.70;5.85;;;;;;;;;;4969268;28;20050;-65
2023/02/20 11:22:07;;;;;;;8.18;4.97;;;;;;;;;;4969500;28;20846;-67
2023/02/20 11:24:36;;;;;;;9.75;5.00;;;;;;;;;;4970677;28;20071;-65
2023/02/20 11:27:07;;;;;;;5.57;2.63;;;;;;;;;;4988698;28;20046;-65
2023/02/20 11:29:35;;;;;;;5.30;2.55;;;;;;;;;;4981311;28;20786;-66
2023/02/20 11:32:17;;;;;;;5.68;2.90;;;;;;;;;;4965865;28;20081;-65
2023/02/20 11:34:44;;;;;;;8.02;4.65;;;;;;;;;;4967702;28;20051;-65
2023/02/20 11:37:12;;;;;;;6.35;3.35;;;;;;;;;;4965585;28;20086;-66
2023/02/20 11:39:39;;;;;;;9.00;4.70;;;;;;;;;;4963071;28;20140;-65
2023/02/20 11:42:05;;;;;;;8.68;5.00;;;;;;;;;;4965670;28;20047;-66
2023/02/20 11:44:32;;;;;;;8.48;4.75;;;;;;;;;;4967240;28;20054;-65
2023/02/20 11:47:17;;;;;;;8.30;4.97;;;;;;;;;;4964778;28;20039;-67
2023/02/20 11:49:44;;;;;;;10.00;5.88;;;;;;;;;;4978222;28;20194;-67
2023/02/20 11:52:22;;;;;;;5.18;2.75;;;;;;;;;;4982980;28;20068;-65
2023/02/20 11:55:08;;;;;;;9.40;5.57;;;;;;;;;;4995486;28;20548;-65
2023/02/20 11:57:37;;;;;;;5.20;3.33;;;;;;;;;;4985884;28;20434;-65
2023/02/20 12:00:09;;;;;;;9.13;4.00;;;;;;;;;;5003204;28;20473;-65
2023/02/20 12:02:36;;;;;;;8.30;4.05;;;;;;;;;;5002541;28;20537;-67
2023/02/20 12:05:13;;;;;;;13.25;5.10;;;;;;;;;;5003214;28;20064;-66
2023/02/20 12:07:40;;;;;;;5.45;2.83;;;;;;;;;;5002140;28;20395;-65
2023/02/20 12:10:07;;;;;;;7.93;4.05;;;;;;;;;;5003550;28;20048;-65
2023/02/20 12:12:34;;;;;;;9.00;5.18;;;;;;;;;;5003180;28;20600;-65
2023/02/20 12:15:01;;;;;;;9.55;5.40;;;;;;;;;;5003053;28;20046;-65
2023/02/20 12:17:41;;;;;;;10.05;5.97;;;;;;;;;;4979020;28;20075;-65
2023/02/20 12:20:17;;;;;;;10.05;5.57;;;;;;;;;;4966573;28;20047;-65
2023/02/20 12:23:07;;;;;;;9.98;6.03;;;;;;;;;;4968182;28;20085;-65
2023/02/20 12:25:45;;;;;;;10.90;6.60;;;;;;;;;;4959749;28;20150;-65
2023/02/20 12:28:24;;;;;;;6.95;3.83;;;;;;;;;;4966993;28;20038;-66
2023/02/20 12:31:17;;;;;;;13.15;5.18;;;;;;;;;;4975134;28;20167;-65
2023/02/20 12:33:54;;;;;;;5.03;3.30;;;;;;;;;;4966209;28;20475;-66
2023/02/20 12:36:40;;;;;;;14.30;5.70;;;;;;;;;;4967310;28;20128;-66
2023/02/20 12:39:22;;;;;;;9.05;4.80;;;;;;;;;;4967597;28;20046;-66
2023/02/20 12:41:52;;;;;;;8.45;4.00;;;;;;;;;;4977043;28;20046;-65
2023/02/20 12:44:41;;;;;;;8.38;5.00;;;;;;;;;;4966959;28;20152;-67
2023/02/20 12:47:11;;;;;;;8.90;4.80;;;;;;;;;;4968419;28;20121;-66
2023/02/20 12:49:40;;;;;;;11.00;5.63;;;;;;;;;;4996056;28;20060;-65
2023/02/20 12:52:16;;;;;;;10.18;5.07;;;;;;;;;;5007896;28;20041;-65
2023/02/20 12:55:08;;;;;;;10.90;5.82;;;;;;;;;;5006667;28;20437;-65
2023/02/20 12:57:44;;;;;;;9.15;5.05;;;;;;;;;;5002980;28;20169;-65
2023/02/20 13:00:31;;;;;;;9.60;5.32;;;;;;;;;;5006243;28;20628;-65
2023/02/20 13:03:09;;;;;;;10.45;6.10;;;;;;;;;;5016048;28;20041;-66
2023/02/20 13:05:39;;;;;;;12.48;6.40;;;;;;;;;;5006467;28;20049;-65
2023/02/20 13:08:24;;;;;;;10.80;5.97;;;;;;;;;;5009197;28;20075;-65
2023/02/20 13:10:58;;;;;;;9.38;5.35;;;;;;;;;;5035213;28;20400;-65
2023/02/20 13:13:27;;;;;;;8.27;5.05;;;;;;;;;;5027242;28;20041;-65
2023/02/20 13:15:56;;;;;;;10.40;4.97;;;;;;;;;;5021096;28;20045;-65
2023/02/20 13:18:23;;;;;;;11.52;5.50;;;;;;;;;;5012346;28;21020;-65
2023/02/20 13:20:51;;;;;;;7.93;4.75;;;;;;;;;;5014263;28;20049;-65
2023/02/20 13:23:18;;;;;;;11.15;5.35;;;;;;;;;;5011744;28;20161;-65
2023/02/20 13:25:45;;;;;;;11.70;5.70;;;;;;;;;;5013746;28;20367;-65
2023/02/20 13:28:12;;;;;;;11.38;5.95;;;;;;;;;;5013051;28;20380;-65
2023/02/20 13:30:39;;;;;;;10.65;5.28;;;;;;;;;;5015847;28;20038;-66
2023/02/20 13:33:13;;;;;;;9.73;5.70;;;;;;;;;;5013218;28;20068;-64
2023/02/20 13:35:52;;;;;;;13.45;6.72;;;;;;;;;;5015702;28;20054;-65
2023/02/20 13:38:21;;;;;;;10.88;6.32;;;;;;;;;;5011403;28;20041;-66
2023/02/20 13:41:00;;;;;;;12.90;6.18;;;;;;;;;;5014249;28;20037;-66
2023/02/20 13:43:32;;;;;;;13.55;6.00;;;;;;;;;;5017661;28;20037;-66
2023/02/20 13:46:02;;;;;;;12.57;6.88;;;;;;;;;;5004111;28;20089;-66
2023/02/20 13:48:29;;;;;;;15.85;7.05;;;;;;;;;;5012263;28;20056;-65
2023/02/20 13:51:14;;;;;;;12.07;5.95;;;;;;;;;;5013476;28;21255;-66
2023/02/20 13:53:45;;;;;;;11.68;6.53;;;;;;;;;;5021709;28;20059;-66
2023/02/20 13:56:15;;;;;;;12.55;6.25;;;;;;;;;;5028804;28;20053;-67
2023/02/20 13:58:42;;;;;;;12.43;6.68;;;;;;;;;;5012183;28;20053;-67
2023/02/20 14:01:08;;;;;;;17.23;6.38;;;;;;;;;;5013289;28;20037;-67
2023/02/20 14:03:35;;;;;;;8.27;4.97;;;;;;;;;;5013957;28;20042;-66
2023/02/20 14:06:13;;;;;;;13.85;7.68;;;;;;;;;;5015754;28;20039;-67
2023/02/20 14:08:40;;;;;;;14.45;6.85;;;;;;;;;;5017943;28;20037;-67
2023/02/20 14:11:07;;;;;;;15.95;7.18;;;;;;;;;;5030714;28;20041;-66
2023/02/20 14:13:35;;;;;;;13.18;6.80;;;;;;;;;;5025885;28;20038;-66
2023/02/20 14:16:01;;;;;;;13.20;7.05;;;;;;;;;;5021914;28;20050;-65
2023/02/20 14:18:29;;;;;;;14.93;7.75;;;;;;;;;;5021148;28;20065;-66
2023/02/20 14:21:05;;;;;;;13.07;7.07;;;;;;;;;;5015323;28;20041;-65
2023/02/20 14:23:34;;;;;;;11.65;6.30;;;;;;;;;;5028092;28;20041;-65
2023/02/20 14:26:05;;;;;;;15.50;7.15;;;;;;;;;;5016788;28;20053;-66
2023/02/20 14:28:33;;;;;;;15.55;8.32;;;;;;;;;;4994950;28;20064;-66
2023/02/20 14:31:07;;;;;;;15.10;7.57;;;;;;;;;;5019107;28;20072;-65
2023/02/20 14:33:34;;;;;;;15.60;7.88;;;;;;;;;;5023088;28;20045;-65
2023/02/20 14:36:03;;;;;;;13.82;6.88;;;;;;;;;;5019726;28;20069;-65
2023/02/20 14:38:43;;;;;;;15.73;8.23;;;;;;;;;;5017915;28;20057;-65
2023/02/20 14:41:12;;;;;;;13.85;7.20;;;;;;;;;;5016170;28;20045;-65
2023/02/20 14:43:38;;;;;;;16.85;8.65;;;;;;;;;;5014312;28;21286;-66
2023/02/20 14:46:06;;;;;;;12.18;6.80;;;;;;;;;;5011100;28;20427;-65
2023/02/20 14:48:36;;;;;;;11.25;5.88;;;;;;;;;;5008553;28;20056;-65
2023/02/20 14:51:08;;;;;;;12.88;7.07;;;;;;;;;;5013930;28;20038;-66
2023/02/20 14:53:36;;;;;;;17.17;8.20;;;;;;;;;;5010461;28;20052;-66
2023/02/20 14:56:10;;;;;;;16.00;7.18;;;;;;;;;;5009822;28;20045;-66
2023/02/20 14:58:39;;;;;;;;;;;;;;;;;;5009553;28;20832;-66
2023/02/20 15:01:37;;;;;;;7.95;4.38;;;;;;;;;;5011633;28;19920;-66
2023/02/20 15:04:06;;;;;;;13.02;6.57;;;;;;;;;;5007387;28;20070;-66
2023/02/20 15:06:37;;;;;;;15.95;8.35;;;;;;;;;;5018202;28;20593;-66
2023/02/20 15:09:04;;;;;;;17.23;8.35;;;;;;;;;;5010826;28;20052;-66
2023/02/20 15:11:31;;;;;;;17.50;8.52;;;;;;;;;;5010480;28;20041;-66
2023/02/20 15:13:59;;;;;;;15.35;8.48;;;;;;;;;;5009830;28;20042;-66
2023/02/20 15:16:37;;;;;;;12.23;6.95;;;;;;;;;;5006871;28;20076;-66